Date,TemperatureHighF,TemperatureAvgF,TemperatureLowF,DewpointHighF,DewpointAvgF,DewpointLowF,HumidityHigh,HumidityAvg,HumidityLow,PressureMaxIn,PressureMinIn,WindSpeedMaxMPH,WindSpeedAvgMPH,GustSpeedMaxMPH,PrecipitationSumIn
2013-1-1,52.1,44.6,34.2,36.6,33.9,30.4,86,67,52,30.31,30.23,4,1,7,0.00
2013-1-2,54.6,45.6,33.7,38.7,34.8,30.0,93,67,49,30.29,30.17,2,0,4,0.01
2013-1-3,52.0,44.8,37.2,40.2,37.0,33.5,93,75,60,30.30,30.24,2,0,3,0.00
2013-1-4,55.0,45.7,34.9,40.5,36.6,32.2,93,71,56,30.33,30.21,2,0,4,0.01
2013-1-5,48.4,45.4,35.2,43.6,41.3,33.4,93,86,79,30.30,30.13,2,0,4,0.24
2013-1-6,51.9,44.9,37.9,47.5,41.6,35.0,95,88,76,30.21,30.14,1,0,2,0.18
2013-1-7,52.3,46.1,38.6,45.2,40.7,36.5,95,82,72,30.27,30.18,2,0,4,0.01
2013-1-8,56.2,48.2,40.2,47.3,42.6,37.4,94,81,68,30.28,30.16,2,0,4,0.00
2013-1-9,51.1,47.4,42.8,48.2,42.4,32.8,94,84,62,30.10,29.95,3,1,7,0.01
2013-1-10,51.2,44.0,33.0,37.5,33.1,28.4,93,67,49,30.16,30.09,3,0,9,0.00
2013-1-11,49.7,42.8,32.2,37.9,33.8,30.1,92,72,52,30.26,30.14,2,0,3,0.01
2013-1-12,48.0,43.2,35.8,27.8,26.4,24.5,70,52,40,30.27,30.20,3,1,5,0.00
2013-3-31,70.2,60.6,53.2,57.3,53.1,50.0,93,78,53,30.10,29.99,4,1,0,0.56
2013-4-1,69.2,59.7,52.7,56.3,52.0,49.4,93,77,55,30.16,30.06,6,0,9,0.01
2013-4-2,75.7,67.1,55.1,57.8,54.6,49.7,88,65,45,30.17,30.06,2,0,7,0.00
2013-4-3,76.7,69.4,52.7,58.1,54.5,50.4,92,60,47,30.14,29.96,2,0,5,0.01
2013-4-4,65.4,59.5,53.0,59.1,54.9,50.7,94,85,70,30.11,30.06,4,2,11,0.62
2013-4-5,70.5,64.2,54.5,56.4,52.7,49.7,94,67,50,30.16,30.09,3,1,11,0.01
2013-4-6,69.4,63.5,54.2,57.1,54.1,48.8,88,72,61,30.19,30.09,4,1,9,0.00
2013-4-7,68.8,62.7,52.0,56.5,51.1,44.4,85,66,56,30.10,29.87,7,4,15,0.01
2013-4-8,69.7,63.7,53.9,39.7,34.9,31.6,45,35,26,30.00,29.87,7,3,16,0.00
2013-4-9,76.4,69.7,54.9,41.6,39.3,37.1,51,34,25,30.10,30.02,5,2,14,0.00
2013-4-10,89.0,79.3,66.0,61.2,54.2,47.9,65,43,29,30.18,29.94,3,1,5,0.00
2013-4-11,80.0,70.7,53.9,46.0,40.9,36.3,65,35,22,29.99,29.81,3,1,12,0.00
2013-4-12,85.2,72.1,52.4,57.5,48.7,42.1,80,46,23,29.90,29.77,3,1,8,0.00
2013-4-13,78.4,66.3,48.7,55.3,50.5,44.2,88,58,39,29.88,29.76,3,0,6,0.00
2013-4-14,76.0,70.8,59.5,49.5,44.0,35.1,55,39,25,29.88,29.74,5,2,13,0.00
2013-4-15,67.2,58.6,50.6,48.1,43.0,36.6,82,57,34,29.90,29.78,7,2,12,0.03
2013-4-16,69.0,63.9,53.1,36.8,32.5,28.9,46,31,25,30.11,30.03,5,2,12,0.00
2013-4-17,71.4,66.0,57.7,36.7,32.2,28.9,45,29,23,30.27,30.18,5,2,11,0.00
2013-4-18,79.5,72.0,58.7,45.4,40.6,37.1,59,33,22,30.28,30.16,3,1,6,0.00
2013-4-19,84.5,74.1,52.0,55.2,50.9,44.7,76,46,29,30.24,30.03,2,0,5,0.00
2013-4-20,85.6,76.6,59.7,47.7,43.0,36.9,60,32,18,30.10,29.94,3,1,12,0.00
2013-4-21,90.6,82.5,66.2,52.0,47.1,43.0,57,30,20,30.04,29.90,2,1,5,0.00
2013-4-22,89.5,82.0,69.5,50.7,43.5,36.5,45,27,17,29.97,29.82,4,2,10,0.03
2013-4-23,85.6,79.6,63.6,45.1,38.7,33.6,51,24,17,29.94,29.81,4,1,11,0.00
2013-4-24,90.1,79.7,59.0,52.6,43.6,39.0,64,31,18,29.85,29.73,5,1,7,0.00
2013-4-25,75.3,67.6,54.7,54.9,51.4,46.7,75,57,45,30.05,29.98,5,2,9,0.00
2013-4-26,81.9,72.3,54.4,57.4,54.1,48.4,80,54,40,30.21,30.09,3,1,7,0.04
2013-4-27,88.5,76.4,55.3,61.3,56.6,48.8,79,52,36,30.21,30.01,2,0,5,0.00
2013-4-28,92.4,83.7,59.2,59.7,54.0,45.6,78,39,22,30.04,29.84,2,0,4,0.00
2013-4-29,93.0,86.7,74.4,55.2,52.0,48.9,44,31,23,29.88,29.72,3,1,9,0.00
2013-4-30,83.4,78.3,67.9,43.4,35.9,30.2,30,22,17,29.83,29.78,5,4,15,0.00
2013-5-1,88.1,81.3,68.9,42.3,38.0,31.9,27,21,17,30.03,29.98,4,2,16,0.00
2013-5-2,92.9,84.9,70.8,47.5,41.5,32.7,35,22,15,30.16,30.03,2,1,7,0.00
2013-5-3,93.9,82.9,61.4,54.2,49.8,46.1,63,34,20,30.02,29.74,1,0,6,0.00
2013-5-4,90.5,83.0,61.2,49.7,45.2,40.2,63,28,19,29.70,29.50,4,2,12,0.00
2013-5-5,74.5,69.1,59.6,52.7,50.1,48.2,70,52,42,29.79,29.69,2,0,5,0.00
2013-5-6,74.0,68.1,58.5,57.4,53.7,50.7,86,61,49,29.93,29.84,4,2,9,0.27
2013-5-7,74.9,70.4,59.6,57.0,54.3,52.1,83,57,48,30.01,29.96,2,0,10,0.00
2013-5-8,75.6,69.1,58.6,57.3,54.1,50.3,78,60,44,30.10,30.02,5,2,11,0.04
2013-5-9,83.0,72.9,60.1,62.9,56.9,51.0,78,58,46,30.12,30.01,5,2,11,0.05
2013-5-10,87.1,74.4,59.3,65.0,58.8,51.9,78,60,45,30.15,30.02,3,1,6,0.05
2013-5-11,93.0,81.9,59.4,67.6,62.3,53.6,81,53,37,30.11,29.99,1,0,5,0.00
2013-5-12,93.1,84.2,66.1,61.9,56.4,48.5,54,40,25,30.09,29.95,4,1,11,0.00
2013-5-13,90.1,80.4,61.6,63.9,59.1,52.7,74,50,32,30.04,29.88,2,1,6,0.00
2013-5-14,88.2,78.3,61.8,62.8,56.7,49.2,64,48,37,29.90,29.83,5,2,11,0.00
2013-5-15,78.8,72.0,60.2,56.2,52.5,49.3,68,51,42,30.00,29.91,5,2,10,0.00
2013-5-16,79.4,71.5,59.4,56.4,52.5,48.4,70,52,36,29.97,29.88,8,2,14,0.00
2013-5-17,76.8,70.9,60.1,54.2,50.0,43.1,70,48,36,30.00,29.96,4,1,12,0.00
2013-5-18,82.9,74.6,58.3,54.7,51.9,48.2,69,46,33,30.12,30.01,2,0,7,0.00
2013-5-19,86.2,79.0,65.6,52.9,45.7,37.6,47,32,18,30.11,29.95,4,2,11,0.00
2013-5-20,90.5,84.4,70.2,51.5,47.6,43.0,48,29,20,30.00,29.86,2,1,9,0.01
2013-5-21,85.9,79.1,61.8,54.3,44.7,30.0,65,32,16,29.89,29.82,3,1,9,0.08
2013-5-22,74.5,66.7,54.6,43.6,34.5,25.4,64,33,17,30.00,29.85,3,1,12,0.00
2013-5-23,77.1,69.6,57.1,49.7,43.5,36.7,63,41,26,29.97,29.93,2,0,5,0.00
2013-5-24,78.7,71.2,58.2,53.8,45.8,36.0,66,42,22,29.99,29.88,3,1,9,0.00
2013-5-25,78.7,70.2,56.9,55.9,50.7,46.8,69,51,37,29.98,29.91,4,1,13,0.04
2013-5-26,78.7,65.6,58.1,56.2,43.7,-99.9,78,51,39,30.06,29.98,3,0,10,0.02
2013-5-27,67.7,64.5,59.4,56.8,53.6,48.3,83,68,55,30.08,29.99,4,1,6,0.03
2013-5-28,78.7,72.6,62.7,59.6,55.4,53.3,84,56,44,29.97,29.86,2,0,7,0.02
2013-5-29,82.6,75.7,65.3,59.9,54.9,49.2,62,49,32,29.91,29.83,2,0,8,0.00
2013-5-30,85.1,76.9,62.3,56.6,52.2,47.5,74,44,28,29.96,29.88,3,0,7,0.00
2013-5-31,92.5,83.0,66.5,54.4,49.2,42.9,51,32,19,29.99,29.86,3,1,9,0.00
2013-6-1,94.2,89.0,78.7,66.3,56.0,50.4,51,34,24,29.88,29.71,2,1,7,0.00
2013-6-2,95.8,86.1,70.1,61.7,56.4,51.1,57,37,27,29.72,29.60,2,0,8,0.00
2013-6-3,89.3,79.0,64.1,65.9,59.2,52.1,67,52,35,29.74,29.68,3,1,9,0.00
2013-6-4,83.7,75.5,62.9,63.1,57.5,51.4,66,54,46,29.86,29.80,3,2,8,0.00
2013-6-5,84.6,74.3,61.9,64.5,58.7,53.0,75,59,47,29.96,29.82,3,1,6,0.02
2013-6-6,90.2,78.6,62.6,67.4,61.2,54.6,76,56,42,29.91,29.76,2,0,6,0.03
2013-6-7,101.5,90.6,68.1,73.1,67.0,58.3,71,47,31,29.84,29.66,2,0,7,0.00
2013-6-8,106.0,94.2,71.2,72.3,66.0,57.2,62,41,26,29.70,29.59,3,1,6,0.00
2013-6-9,81.3,74.1,61.1,64.1,58.2,52.7,74,58,48,29.80,29.73,7,3,11,0.00
2013-6-10,71.4,68.3,64.5,58.2,55.4,53.1,74,64,57,29.93,29.87,6,2,14,0.00
2013-6-11,83.8,75.9,61.5,61.8,56.6,50.6,80,53,32,29.97,29.84,2,0,6,0.00
2013-6-12,85.9,79.2,66.3,61.2,56.0,49.2,69,46,33,29.93,29.85,2,1,7,0.00
2013-6-13,84.8,79.2,70.7,55.7,50.8,47.0,53,38,28,30.06,29.96,3,1,4,0.02
2013-6-14,87.1,79.6,68.0,56.2,49.3,42.5,53,35,25,29.93,29.78,2,1,7,0.00
2013-6-15,85.8,77.5,62.0,61.0,56.1,51.7,69,49,35,29.87,29.82,2,1,7,0.00
2013-6-16,91.2,83.0,64.3,61.5,57.3,52.5,66,43,31,30.02,29.94,2,0,5,0.00
2013-6-17,89.3,79.1,65.0,61.6,56.5,50.6,65,47,27,30.02,29.92,4,1,13,0.00
2013-6-18,81.5,73.0,61.4,56.4,52.4,45.9,73,50,29,29.97,29.87,5,1,12,0.00
2013-6-19,78.7,73.0,63.4,52.5,49.0,44.4,60,43,33,30.04,29.95,2,0,5,0.01
2013-6-20,83.6,77.7,67.1,57.9,52.2,49.4,54,41,33,29.97,29.88,2,0,5,0.00
2013-6-21,88.9,81.5,67.1,56.8,51.2,39.3,59,36,18,29.94,29.85,2,0,5,0.00
2013-6-22,92.7,84.3,67.5,58.9,54.7,50.3,62,37,26,29.89,29.76,2,1,6,0.00
2013-6-23,78.2,70.6,63.2,62.1,59.9,57.4,82,69,50,29.82,29.77,4,2,13,0.00
2013-6-24,68.6,64.3,61.6,61.3,59.0,55.7,89,83,68,29.90,29.84,4,1,5,0.07
2013-6-25,75.4,70.8,65.4,67.8,65.0,62.3,92,82,72,29.98,29.94,5,2,10,0.23
2013-6-26,87.4,81.2,70.2,68.9,65.1,61.5,80,59,44,30.03,29.94,2,1,6,0.00
2013-6-27,94.4,88.0,76.3,70.6,65.9,61.9,70,49,36,30.06,29.96,2,0,4,0.01
2013-6-28,101.4,93.9,81.2,71.6,66.8,-99.9,62,43,34,29.97,29.82,1,0,4,0.00
2013-6-29,103.3,95.0,77.9,72.2,67.1,61.1,64,41,30,29.89,29.73,2,0,6,0.00
2013-6-30,102.3,93.9,77.8,72.2,66.9,61.3,63,42,31,29.80,29.68,1,0,5,0.00
2013-7-1,102.0,91.4,68.4,72.9,67.6,60.4,78,47,33,29.81,29.75,2,0,5,0.02
2013-7-2,99.5,89.4,76.5,73.1,66.8,59.0,69,48,34,29.83,29.77,3,2,8,0.00
2013-7-3,101.8,92.2,77.8,75.4,69.9,62.7,65,49,38,29.85,29.68,2,0,4,0.00
2013-7-4,105.1,93.9,75.4,74.5,69.0,58.1,66,46,30,29.72,29.57,3,0,6,0.00
2013-7-5,83.8,76.8,66.5,62.0,58.7,55.1,68,54,44,29.71,29.63,5,2,9,0.00
2013-7-6,86.2,78.5,67.2,63.0,59.7,55.0,70,53,42,29.76,29.67,2,1,6,0.00
2013-7-7,91.4,81.6,64.4,66.4,56.4,44.6,74,45,20,29.80,29.72,2,0,5,0.00
2013-7-8,92.3,82.1,64.5,63.2,55.5,46.3,70,43,21,29.91,29.86,2,0,4,0.00
2013-7-9,98.0,89.1,68.8,65.2,57.9,50.6,66,37,21,30.01,29.87,1,0,4,0.00
2013-7-10,95.0,84.9,65.7,66.6,59.0,53.1,67,44,27,29.92,29.80,2,1,6,0.00
2013-7-11,86.6,77.0,60.0,61.1,56.4,52.3,76,50,33,29.89,29.79,3,1,10,0.00
2013-7-12,87.4,75.1,58.4,64.9,58.1,52.1,84,57,35,29.91,29.80,2,0,5,0.00
2013-7-13,92.9,84.1,69.0,65.0,56.9,48.0,62,42,22,29.93,29.83,1,0,4,0.00
2013-7-14,91.7,84.4,68.5,65.1,59.6,54.4,63,44,31,29.95,29.81,2,0,5,0.00
2013-7-15,83.8,74.0,60.7,61.8,57.1,51.6,73,57,44,29.85,29.73,4,1,9,0.00
2013-7-16,78.5,71.0,59.3,59.7,56.1,51.8,77,60,48,29.94,29.88,5,2,13,0.00
2013-7-17,89.1,80.7,63.4,62.6,59.0,54.3,77,49,31,30.08,29.96,1,0,5,0.00
2013-7-18,93.8,82.6,62.6,66.2,59.4,54.6,78,48,28,30.02,29.86,2,0,6,0.02
2013-7-19,96.2,83.5,58.7,67.5,61.7,54.5,86,50,29,29.91,29.73,2,0,4,0.00
2013-7-20,95.8,84.2,68.2,69.0,63.3,56.1,73,51,33,29.80,29.63,2,0,5,0.00
2013-7-21,92.5,84.0,72.2,66.2,61.6,54.5,64,48,39,29.77,29.68,3,1,9,0.00
2013-7-22,88.6,81.6,72.0,61.9,56.8,49.8,62,43,31,29.92,29.84,4,1,7,0.00
2013-7-23,89.0,81.9,72.2,62.8,59.0,55.6,58,46,37,29.97,29.88,2,0,5,0.00
2013-7-24,96.8,88.1,72.3,65.4,62.3,57.4,68,43,31,29.94,29.81,1,0,4,0.00
2013-7-25,94.0,84.0,67.6,68.3,62.8,55.8,71,50,38,29.93,29.84,3,1,10,0.00
2013-7-26,94.1,79.1,62.1,68.0,60.8,54.3,77,55,39,30.03,29.89,2,0,6,0.00
2013-7-27,89.8,84.0,67.7,66.3,62.1,56.3,67,49,40,29.87,29.76,3,1,5,0.00
2013-7-28,87.4,75.6,60.2,64.7,59.7,52.2,78,59,45,29.82,29.71,4,1,10,0.02
2013-7-29,79.7,71.7,61.0,60.8,57.2,53.7,77,61,49,29.92,29.87,4,2,10,0.00
2013-7-30,88.2,78.2,63.1,65.6,58.9,49.2,75,53,28,30.07,29.94,1,0,5,0.00
2013-7-31,86.8,77.7,65.2,63.4,58.7,52.7,73,53,40,30.03,29.89,3,1,9,0.00
2013-8-1,85.8,77.3,65.0,60.9,56.7,54.0,68,50,38,30.01,29.89,2,0,5,0.00
2013-8-2,90.0,81.6,64.9,63.7,57.1,52.1,73,45,28,29.95,29.82,1,0,4,0.02
2013-8-3,89.1,78.7,62.4,62.9,58.2,53.9,75,51,34,29.94,29.83,1,0,6,0.00
2013-8-4,86.8,75.6,60.9,63.8,57.7,52.5,77,55,36,29.96,29.86,4,1,7,0.00
2013-8-5,87.5,76.1,58.1,61.6,56.1,50.0,84,52,28,29.99,29.86,2,0,6,0.00
2013-8-6,83.8,73.2,55.4,61.1,56.9,51.0,85,58,39,29.99,29.90,4,1,10,0.00
2013-8-7,79.2,72.4,62.1,62.0,58.2,54.2,76,61,51,30.05,29.97,4,2,10,0.00
2013-8-8,71.0,65.0,58.7,60.1,57.2,54.4,86,76,67,30.00,29.99,0,0,5,0.00
2013-8-17,84.8,78.2,72.9,63.6,61.0,59.6,63,56,49,29.82,29.78,1,0,4,0.00
2013-8-18,97.2,89.6,72.1,70.1,66.3,62.2,71,47,36,29.87,29.73,1,0,4,0.00
2013-8-19,101.5,88.0,70.2,72.3,66.7,60.2,81,52,30,29.87,29.73,1,0,4,0.00
2013-8-20,94.0,82.5,65.2,70.1,64.1,57.6,78,55,41,29.85,29.73,2,0,4,0.01
2013-8-21,89.5,78.9,61.6,63.9,57.9,51.7,82,51,29,29.88,29.80,3,0,7,0.03
2013-8-22,86.0,76.3,61.4,61.1,57.4,53.3,79,53,38,29.90,29.79,3,1,7,0.03
2013-8-23,89.0,76.0,55.6,63.1,58.2,51.8,87,57,33,29.90,29.73,2,0,4,0.00
2013-8-24,89.0,78.8,62.9,62.7,59.2,56.3,79,52,36,29.84,29.76,4,1,9,0.02
2013-8-25,85.7,80.1,67.3,65.4,62.3,59.3,83,56,45,29.91,29.83,4,1,11,0.02
2013-8-26,87.0,77.9,62.6,62.5,58.0,54.1,84,52,35,29.98,29.85,1,0,5,0.04
2013-8-27,91.2,85.1,74.3,59.1,55.5,51.5,50,37,27,29.77,29.75,3,1,6,0.00
2013-8-28,92.5,79.7,63.3,64.2,60.5,55.5,84,55,31,29.89,29.81,1,0,4,0.00
2013-8-29,90.7,82.5,67.9,66.8,63.3,60.0,81,54,39,30.01,29.92,1,0,4,0.00
2013-8-30,96.7,85.8,68.0,68.5,62.6,58.6,81,48,29,30.03,29.86,1,0,4,0.00
2013-8-31,92.4,82.1,64.5,66.1,57.7,51.8,83,46,26,29.93,29.82,4,1,7,0.00
2013-9-1,90.2,79.2,64.0,62.2,57.9,54.1,77,50,30,29.90,29.81,5,1,13,0.00
2013-9-2,84.4,78.0,67.9,67.5,62.8,59.5,84,60,45,29.92,29.83,3,0,6,0.11
2013-9-3,85.0,78.4,66.8,60.7,56.8,53.5,74,49,35,29.96,29.87,4,1,11,0.00
2013-9-4,86.9,74.6,63.1,63.2,56.6,-99.9,81,56,34,30.01,29.88,3,-8,14,0.00
2013-9-5,87.1,78.3,63.3,62.1,57.6,55.2,79,50,34,29.98,29.88,3,0,10,0.00
2013-9-6,91.9,80.5,58.6,61.1,52.7,44.2,88,41,20,29.98,29.81,3,1,12,0.00
2013-9-7,95.9,86.8,68.5,59.6,54.8,48.5,55,35,23,29.88,29.76,1,0,6,0.00
2013-9-8,100.3,88.7,66.2,61.1,56.6,50.6,68,36,20,29.85,29.69,1,0,7,0.00
2013-9-9,101.1,90.9,68.1,63.9,59.0,54.6,66,36,22,29.78,29.61,1,0,9,0.00
2013-9-10,87.5,77.9,65.9,64.6,61.1,57.4,74,57,43,29.79,29.70,5,2,14,0.00
2013-9-11,81.4,75.4,66.5,62.9,60.7,57.9,78,61,52,29.97,29.87,2,1,9,0.00
2013-9-12,87.5,77.9,64.4,64.6,61.4,57.7,81,58,40,29.97,29.81,2,0,7,0.00
2013-9-13,90.8,79.5,64.1,66.8,61.2,55.6,80,55,39,29.86,29.67,2,0,9,0.05
2013-9-14,86.4,76.7,63.8,63.9,59.7,54.0,77,57,44,29.78,29.65,2,0,7,0.00
2013-9-15,87.9,75.4,55.4,62.3,57.5,52.2,89,56,38,29.81,29.74,4,1,11,0.01
2013-9-16,86.2,76.8,61.8,63.7,59.3,55.3,86,57,36,29.88,29.72,2,0,6,0.03
2013-9-17,81.0,74.0,57.9,59.0,55.5,52.4,82,54,40,29.83,29.78,3,0,11,0.00
2013-9-18,86.3,78.5,65.1,51.4,47.4,43.4,52,35,23,29.91,29.77,3,1,12,0.00
2013-9-19,91.1,79.8,62.3,56.8,51.3,46.4,57,39,25,29.86,29.70,1,0,5,0.00
2013-9-20,84.0,73.5,56.4,61.3,56.2,48.6,80,57,34,29.83,29.74,5,2,17,0.01
2013-9-21,66.8,61.0,55.5,60.4,57.3,52.9,92,88,75,29.87,29.80,2,0,12,1.95
2013-9-22,72.8,66.0,53.6,58.8,55.8,51.9,94,71,53,30.00,29.94,1,0,6,0.01
2013-9-23,82.9,75.7,65.3,60.5,57.8,54.0,76,55,38,30.02,29.90,1,0,4,0.00
2013-9-24,80.2,71.7,60.0,59.1,55.6,51.6,80,58,41,29.95,29.81,4,1,15,0.02
2013-9-25,73.3,66.8,59.3,49.0,45.9,41.6,64,48,33,29.92,29.79,2,0,11,0.00
2013-9-26,75.2,68.7,56.8,45.4,41.7,38.6,56,38,30,29.95,29.87,4,1,15,0.00
2013-9-27,77.9,70.0,56.1,46.7,43.3,40.2,63,39,27,30.10,30.00,2,1,12,0.00
2013-9-28,82.9,75.4,62.5,49.4,45.8,41.6,60,36,25,30.10,29.96,2,0,8,0.00
2013-9-29,76.8,71.3,59.6,62.1,59.6,55.7,87,67,57,30.09,30.01,3,1,13,0.00
2013-9-30,77.1,72.4,64.3,63.5,61.4,57.9,88,69,60,30.06,29.93,2,1,11,0.01
2013-10-1,76.5,67.9,58.4,56.1,51.1,46.9,75,57,39,30.01,29.90,2,0,6,0.01
2013-10-2,78.5,70.3,54.3,53.0,48.4,44.9,79,47,34,29.99,29.89,1,0,8,0.00
2013-10-3,73.5,68.5,60.2,40.8,38.5,36.0,46,34,27,30.05,29.93,6,4,24,0.00
2013-10-4,80.3,74.0,62.1,43.0,38.6,35.3,41,28,23,30.11,30.03,4,2,18,0.00
2013-10-5,81.2,72.4,56.8,47.3,41.7,36.4,63,35,23,30.22,30.11,2,0,8,0.01
2013-10-6,82.6,70.1,44.8,50.9,45.0,36.0,71,43,23,30.16,30.00,2,0,8,0.00
2013-10-7,83.5,72.1,51.0,52.8,45.2,41.0,69,40,25,30.00,29.83,1,0,4,0.00
2013-10-8,77.2,68.4,57.1,47.2,43.0,38.2,61,41,28,29.90,29.69,3,1,13,0.00
2013-10-9,74.7,68.6,59.0,48.3,42.6,38.5,56,40,32,29.70,29.61,4,2,14,0.00
2013-10-10,72.7,65.0,54.4,49.5,46.0,43.3,76,52,35,29.97,29.89,1,0,5,0.00
2013-10-11,74.9,66.0,51.5,53.1,49.1,45.5,83,56,39,30.07,29.95,1,0,4,0.00
2013-10-12,75.6,64.9,46.1,52.2,48.0,43.6,91,56,35,30.00,29.84,2,0,10,0.00
2013-10-13,74.9,67.9,56.8,49.0,42.8,40.5,55,41,31,30.03,29.97,3,1,16,0.00
2013-10-14,77.2,68.5,55.4,47.7,42.7,39.7,61,41,28,30.14,30.00,1,0,7,0.00
2013-10-15,80.4,72.8,54.3,43.3,39.6,34.4,56,31,25,30.06,29.94,2,1,12,0.02
2013-10-16,79.1,67.2,53.5,48.8,44.5,38.9,72,46,27,30.12,30.02,1,0,4,0.00
2013-10-17,81.8,70.5,56.7,47.6,44.1,39.6,63,40,26,30.09,29.95,1,0,7,0.00
2013-10-18,79.8,66.7,42.7,50.6,45.4,37.9,85,49,28,30.06,29.97,0,0,5,0.00
2013-10-19,82.5,73.1,59.0,51.0,46.9,42.8,61,41,26,30.08,29.98,1,0,5,0.00
2013-10-20,84.3,71.7,47.9,52.6,46.8,42.6,82,43,25,30.01,29.87,1,0,4,0.00
2013-10-21,79.6,70.6,56.1,53.3,49.7,46.1,70,49,34,30.00,29.89,1,0,4,0.01
2013-10-22,82.7,71.4,56.4,52.8,49.7,47.5,73,48,31,30.02,29.89,1,0,7,0.02
2013-10-23,83.6,71.4,53.6,52.2,47.2,43.7,75,45,26,29.95,29.83,1,0,4,0.00
2013-10-24,71.7,63.7,48.0,53.1,49.4,44.0,86,61,48,30.02,29.96,1,0,6,0.00
2013-10-25,76.1,64.3,52.3,52.4,50.1,48.1,86,62,40,30.18,30.06,1,0,6,0.00
2013-10-26,78.8,67.6,53.0,53.7,49.2,45.2,86,54,32,30.16,30.00,1,0,7,0.00
2013-10-27,65.6,56.6,42.7,51.6,47.1,39.7,91,71,55,29.92,29.55,11,5,24,0.00
2013-10-28,65.5,60.6,47.4,46.1,44.4,41.7,88,56,44,29.78,29.69,2,1,12,0.00
2013-10-29,63.1,57.5,48.5,49.6,47.3,43.8,86,69,55,30.04,29.97,1,0,5,0.00
2013-10-30,66.7,59.7,49.6,51.1,46.6,43.0,86,63,47,30.16,30.08,1,0,7,0.00
2013-10-31,70.1,62.1,47.4,48.8,45.5,42.5,83,56,40,30.19,30.07,2,0,5,0.00
2013-11-1,73.9,62.8,42.4,50.9,46.8,39.7,92,58,37,30.19,30.01,1,0,5,0.00
2013-11-2,74.8,65.6,46.3,53.2,49.4,43.8,91,57,44,30.01,29.85,1,0,7,0.00
2013-11-3,64.0,60.0,55.7,34.4,32.1,30.5,40,35,30,30.05,29.92,5,2,21,0.00
2013-11-4,68.1,63.4,55.0,35.5,33.4,31.5,42,33,26,30.04,29.95,6,3,22,0.00
2013-11-5,70.3,59.6,46.2,41.5,38.0,35.3,68,46,31,30.24,30.13,2,0,10,0.00
2013-11-6,70.5,61.4,45.8,44.4,40.3,36.0,70,48,30,30.30,30.19,1,0,6,0.00
2013-11-7,73.8,63.1,51.7,46.4,43.5,41.0,72,50,32,30.19,30.05,1,0,7,0.00
2013-11-8,73.1,63.1,49.7,47.5,44.4,38.5,78,53,35,30.08,29.93,0,0,5,0.00
2013-11-9,72.3,64.0,51.2,49.3,46.4,43.8,76,54,39,30.05,29.97,1,0,5,0.02
2013-11-10,72.7,60.6,47.9,50.2,46.2,42.0,83,61,41,30.11,30.05,1,0,4,0.00
2013-11-11,68.7,59.5,51.5,49.7,46.0,43.4,79,62,41,30.16,30.08,1,0,5,0.02
2013-11-12,71.6,64.1,52.3,49.1,46.2,42.9,71,53,39,30.27,30.20,1,0,7,0.00
2013-11-13,78.6,65.9,50.6,51.6,48.0,43.1,78,55,37,30.25,30.05,2,0,6,0.00
2013-11-14,65.3,56.2,46.0,52.4,48.0,42.6,91,75,58,30.08,29.83,0,0,3,0.00
2013-11-15,67.5,58.6,45.7,39.7,36.0,32.7,70,44,29,29.83,29.71,3,1,14,0.00
2013-11-16,63.9,56.6,47.3,45.5,42.3,39.4,85,61,43,29.89,29.80,1,0,4,0.00
2013-11-17,62.8,53.3,42.8,48.7,44.8,40.4,91,74,58,30.09,30.02,1,0,4,0.00
2013-11-18,60.2,55.7,49.9,48.5,46.1,44.0,82,70,57,30.15,30.06,1,0,6,0.00
2013-11-19,60.0,57.0,51.8,52.8,51.9,48.7,92,83,75,30.10,29.96,1,0,5,0.32
2013-11-20,58.1,56.0,53.4,56.1,54.0,51.4,94,93,92,29.93,29.84,2,0,10,0.16
2013-11-21,59.0,54.3,49.3,34.5,32.4,26.9,54,44,36,30.02,29.92,5,3,21,0.04
2013-11-22,69.1,63.5,54.4,31.2,28.8,24.6,37,27,21,30.05,29.91,5,3,18,0.00
2013-11-23,61.0,54.2,41.1,45.8,42.5,39.0,93,66,50,30.09,30.01,1,0,6,0.00
2013-11-24,59.9,50.9,38.4,45.8,42.0,36.0,92,73,57,30.25,30.19,1,0,6,0.00
2013-11-25,61.6,52.8,44.1,45.9,42.4,39.2,86,69,53,30.36,30.27,2,0,7,0.01
2013-11-26,59.5,53.1,45.2,42.9,40.5,37.6,79,63,47,30.27,30.10,1,0,5,0.00
2013-11-27,62.7,56.2,48.5,45.4,42.8,39.5,77,61,53,30.01,29.87,2,0,7,0.00
2013-11-28,68.3,59.5,47.2,46.8,43.4,39.7,76,57,39,30.04,29.94,2,0,6,0.00
2013-11-29,67.0,57.2,44.8,46.8,43.6,40.6,85,62,43,30.20,30.11,1,0,7,0.00
2013-11-30,67.0,55.6,43.6,47.3,44.1,40.3,91,67,46,30.29,30.19,1,0,6,0.00
2013-12-1,66.2,55.5,40.9,48.4,45.0,38.8,93,69,49,30.36,30.22,1,0,3,0.00
2013-12-2,64.3,55.9,46.2,50.7,46.6,42.4,89,72,58,30.14,29.92,5,1,13,0.01
2013-12-3,56.0,50.3,42.9,33.5,25.9,22.3,54,39,28,29.92,29.84,4,2,19,0.00
2013-12-4,48.5,41.6,31.5,20.3,17.2,13.8,62,38,27,30.08,30.03,3,1,14,0.00
2013-12-5,48.1,40.6,29.1,21.4,18.8,15.7,65,43,30,30.18,30.12,2,0,11,0.00
2013-12-6,43.8,41.2,33.4,36.6,31.6,24.8,87,69,59,30.22,29.93,5,1,11,0.37
2013-12-7,46.3,38.3,30.7,37.1,29.8,-99.9,92,74,54,30.25,30.04,4,1,13,0.00
2013-12-8,42.2,36.0,28.9,25.7,22.9,20.5,72,59,48,30.36,30.27,2,0,11,0.00
2013-12-9,46.4,37.4,28.3,28.3,24.3,18.3,84,60,45,30.46,30.40,2,0,10,0.00
2013-12-10,50.2,43.3,33.4,31.4,29.0,25.3,72,58,45,30.40,30.22,2,0,9,0.00
2013-12-11,54.4,44.1,31.2,35.1,31.3,27.5,86,62,42,30.30,30.21,1,0,5,0.00
2013-12-12,56.9,46.6,33.6,36.4,33.4,28.7,82,62,40,30.30,30.18,2,0,6,0.00
2013-12-13,61.6,48.0,34.4,36.6,33.8,29.8,83,60,36,30.35,30.25,2,0,9,0.00
2013-12-14,58.6,41.8,30.1,38.9,32.8,26.9,90,72,43,30.45,30.33,1,0,6,0.00
2013-12-15,59.6,43.3,32.1,40.8,34.8,28.8,90,74,48,30.40,30.27,1,0,4,0.01
2013-12-16,60.8,50.5,33.4,41.4,38.3,30.8,91,64,45,30.28,30.15,1,0,3,0.00
2013-12-17,61.7,51.8,40.5,44.1,39.7,35.4,82,65,46,30.22,30.06,2,0,6,0.00
2013-12-18,62.5,53.5,44.2,44.2,40.6,36.5,86,63,41,29.99,29.72,1,0,4,0.00
2013-12-19,59.0,53.2,46.4,37.1,26.6,19.1,68,36,30,29.93,29.79,8,4,21,0.00
2013-12-20,63.5,52.3,41.9,28.9,22.8,16.7,59,34,17,30.02,29.94,4,1,14,0.00
2013-12-21,62.2,50.9,38.8,37.5,33.9,31.0,78,54,35,30.09,29.98,2,0,7,0.00
2013-12-22,59.4,51.5,35.2,39.6,36.9,31.1,85,59,44,30.28,30.22,1,0,5,0.00
2013-12-23,62.0,53.1,40.8,42.4,39.1,36.0,85,60,46,30.44,30.35,2,0,5,0.00
2013-12-24,62.8,52.1,38.1,44.1,39.9,34.0,85,65,48,30.34,30.22,2,0,7,0.00
2013-12-25,62.2,52.1,38.3,45.1,41.1,35.5,91,67,51,30.35,30.22,1,0,5,0.00
2013-12-26,64.3,52.5,38.5,43.3,37.0,32.2,78,58,36,30.30,30.20,2,0,6,0.00
2013-12-27,57.8,49.4,33.5,39.3,34.7,-99.9,88,60,48,30.28,30.15,2,0,6,0.00
2013-12-28,68.3,61.7,46.5,37.7,33.0,28.1,58,35,28,30.15,30.02,5,2,16,0.00
2013-12-29,60.7,52.6,41.4,39.4,36.3,31.6,77,55,39,30.22,30.13,2,0,4,0.00
2013-12-30,60.4,54.5,45.3,39.9,37.2,32.8,70,53,43,30.29,30.22,2,0,6,0.00
2013-12-31,63.9,51.4,37.1,38.0,33.9,28.9,73,53,34,30.29,30.16,2,0,6,0.00
2014-1-1,60.8,49.6,35.5,39.7,35.4,27.7,78,59,40,30.23,30.13,0,0,4,0.00
2014-1-2,66.6,54.8,41.0,41.1,37.3,34.3,77,54,34,30.15,30.06,1,0,6,0.00